Time;durP1;ratioP1;P1;durP2;ratioP2;P2;SDS_P1;SDS_P2;PMS_P1;PMS_P2;Temp;Humidity;BMP_temperature;BMP_pressure;BME280_temperature;BME280_humidity;BME280_pressure;Samples;Min_cycle;Max_cycle;Signal;HPM_P1;HPM_P2
2021/11/27 00:00:30;;;;;;;;;6.00;6.00;;;;;6.45;69.79;98615.16;4923343;28;46292;-96
2021/11/27 00:02:57;;;;;;;;;7.00;6.00;;;;;6.25;69.60;98589.44;4919949;28;45695;-96
2021/11/27 00:05:25;;;;;;;;;9.33;7.00;;;;;6.23;69.84;98587.63;4942130;28;45138;-96
2021/11/27 00:07:51;;;;;;;;;5.75;5.75;;;;;6.30;69.80;98601.72;4939437;28;48083;-96
2021/11/27 00:10:20;;;;;;;;;6.00;5.67;;;;;6.15;69.75;98582.22;4901924;28;45456;-96
2021/11/27 00:12:47;;;;;;;;;11.00;5.00;;;;;6.13;69.54;98579.53;4907715;29;45535;-96
2021/11/27 00:15:15;;;;;;;;;4.00;4.00;;;;;6.20;69.47;98598.84;4926367;28;45377;-96
2021/11/27 00:17:40;;;;;;;;;6.67;5.67;;;;;6.07;69.72;98586.28;4912776;28;48587;-96
2021/11/27 00:20:12;;;;;;;;;6.00;5.00;;;;;6.24;69.80;98618.94;4917427;28;45964;-96
2021/11/27 00:22:38;;;;;;;;;3.33;1.00;;;;;6.00;69.58;98577.41;4929978;28;44843;-96
2021/11/27 00:25:06;;;;;;;;;2.50;2.25;;;;;6.09;69.39;98600.25;4928102;28;44942;-96
2021/11/27 00:27:32;;;;;;;;;3.00;3.00;;;;;6.06;69.84;98602.72;4910454;28;46979;-96
2021/11/27 00:29:58;;;;;;;;;2.00;2.00;;;;;5.98;69.68;98589.53;4894086;29;45764;-96
2021/11/27 00:32:24;;;;;;;;;6.00;6.00;;;;;5.95;69.75;98586.81;4927431;28;45479;-96
2021/11/27 00:34:49;;;;;;;;;6.25;2.75;;;;;5.97;69.70;98595.56;4934277;28;45229;-96
2021/11/27 00:37:15;;;;;;;;;3.00;2.00;;;;;5.94;69.27;98588.53;4916780;28;47657;-96
2021/11/27 00:39:40;;;;;;;;;2.67;2.67;;;;;5.97;69.83;98601.66;4915901;28;44883;-96
2021/11/27 00:42:07;;;;;;;;;4.00;3.00;;;;;5.93;69.41;98586.75;4932871;28;45400;-96
2021/11/27 00:44:32;;;;;;;;;2.67;2.00;;;;;5.97;69.57;98600.75;4912021;29;45547;-96
2021/11/27 00:46:58;;;;;;;;;3.00;3.00;;;;;5.96;69.38;98601.59;4921175;28;46999;-96
2021/11/27 00:49:24;;;;;;;;;5.33;5.00;;;;;6.09;69.46;98622.00;4913638;28;45300;-96
2021/11/27 00:51:50;;;;;;;;;9.67;5.00;;;;;6.19;69.14;98628.34;4933973;28;44769;-96
2021/11/27 00:54:19;;;;;;;;;5.00;2.67;;;;;6.01;68.59;98595.69;4943648;28;45198;-96
2021/11/27 00:56:45;;;;;;;;;5.00;2.67;;;;;5.96;67.74;98596.38;4941847;28;47245;-96
2021/11/27 00:59:12;;;;;;;;;1.67;1.00;;;;;6.05;68.14;98620.13;4921682;28;45392;-96
2021/11/27 01:01:39;;;;;;;;;8.00;1.00;;;;;5.98;67.96;98613.81;4944825;28;45422;-96
2021/11/27 01:04:05;;;;;;;;;1.00;1.00;;;;;5.82;68.51;98587.31;4913112;28;45362;-96
2021/11/27 01:06:31;;;;;;;;;1.00;1.00;;;;;5.76;67.83;98573.25;4942126;28;48089;-96
2021/11/27 01:08:59;;;;;;;;;0.00;0.00;;;;;5.77;66.82;98581.09;4910781;28;45975;-95
2021/11/27 01:11:35;;;;;;;;;0.00;0.00;;;;;5.67;66.65;98566.94;4925244;28;44824;-96
2021/11/27 01:14:05;;;;;;;;;0.67;0.67;;;;;5.78;67.93;98592.41;4905669;28;45432;-96
2021/11/27 01:16:33;;;;;;;;;0.00;0.00;;;;;5.73;66.62;98604.41;4901928;28;48300;-96
2021/11/27 01:18:59;;;;;;;;;0.00;0.00;;;;;5.54;66.18;98577.81;4903236;28;45616;-96
2021/11/27 01:21:29;;;;;;;;;0.00;0.00;;;;;5.46;66.71;98568.03;4926645;28;45445;-96
2021/11/27 01:23:57;;;;;;;;;0.00;0.00;;;;;5.49;65.88;98585.47;4927744;28;45217;-96
2021/11/27 01:26:24;;;;;;;;;0.00;0.00;;;;;5.50;66.19;98588.97;4912971;28;48376;-96
2021/11/27 01:28:50;;;;;;;;;0.00;0.00;;;;;5.36;66.18;98579.03;4907453;28;46285;-96
2021/11/27 01:31:15;;;;;;;;;0.00;0.00;;;;;5.44;66.80;98600.06;4908659;28;45267;-96
2021/11/27 01:33:41;;;;;;;;;0.00;0.00;;;;;5.33;66.96;98595.44;4925379;28;45564;-96
2021/11/27 01:36:07;;;;;;;;;2.00;0.00;;;;;5.32;67.11;98597.97;4922636;28;47177;-96
2021/11/27 01:38:34;;;;;;;;;0.67;0.00;;;;;5.28;67.48;98594.41;4902610;29;45504;-96
2021/11/27 01:41:01;;;;;;;;;0.00;0.00;;;;;5.21;67.33;98576.78;4908752;28;45534;-96
2021/11/27 01:43:27;;;;;;;;;0.00;0.00;;;;;5.19;67.74;98578.47;4922013;28;45407;-96
2021/11/27 01:45:53;;;;;;;;;0.00;0.00;;;;;5.32;68.03;98596.25;4904791;28;47177;-96
2021/11/27 01:48:20;;;;;;;;;0.00;0.00;;;;;5.19;67.98;98575.88;4906265;28;45444;-96
2021/11/27 01:51:16;;;;;;;;;1.00;1.00;;;;;5.29;67.84;98598.75;4916946;28;45435;-96
2021/11/27 01:53:47;;;;;;;;;0.00;0.00;;;;;5.24;67.85;98597.72;4895251;28;44912;-96
2021/11/27 01:56:16;;;;;;;;;1.67;1.67;;;;;5.18;68.24;98585.38;4916679;28;47427;-96
2021/11/27 01:58:42;;;;;;;;;1.67;1.67;;;;;5.20;68.31;98588.94;4925304;28;45591;-96
2021/11/27 02:01:14;;;;;;;;;0.00;0.00;;;;;5.13;68.72;98579.16;4941159;28;45459;-96
2021/11/27 02:03:40;;;;;;;;;1.00;1.00;;;;;5.13;68.09;98585.25;4931451;28;44781;-96
2021/11/27 02:06:07;;;;;;;;;1.00;0.00;;;;;5.10;68.55;98579.94;4926733;28;47343;-96
2021/11/27 02:08:33;;;;;;;;;1.33;1.00;;;;;5.04;68.38;98566.75;4946230;28;44982;-96
2021/11/27 02:11:02;;;;;;;;;3.00;1.00;;;;;5.03;68.16;98568.47;4919957;28;45468;-95
2021/11/27 02:13:27;;;;;;;;;0.00;0.00;;;;;4.97;68.17;98550.06;4921412;28;45459;-96
2021/11/27 02:15:52;;;;;;;;;1.67;1.67;;;;;5.17;67.97;98594.03;4921800;28;47618;-96
2021/11/27 02:18:18;;;;;;;;;1.00;1.00;;;;;5.07;68.40;98571.16;4906908;28;46008;-96
2021/11/27 02:21:11;;;;;;;;;1.00;1.00;;;;;5.13;68.20;98571.34;4890804;29;45408;-96
2021/11/27 02:23:37;;;;;;;;;4.00;1.00;;;;;4.95;68.25;98543.06;4909430;28;45456;-96
2021/11/27 02:26:08;;;;;;;;;0.67;0.00;;;;;5.11;68.88;98567.81;4915617;28;47570;-95
2021/11/27 02:28:36;;;;;;;;;1.00;1.00;;;;;5.11;68.60;98575.63;4911789;28;46150;-96
2021/11/27 02:31:03;;;;;;;;;7.67;2.00;;;;;5.02;68.82;98558.03;4924814;28;45418;-96
2021/11/27 02:33:28;;;;;;;;;1.67;1.00;;;;;4.96;68.37;98550.91;4924494;28;45601;-96
2021/11/27 02:35:54;;;;;;;;;3.00;1.50;;;;;4.82;67.99;98521.84;4907922;28;47093;-96
2021/11/27 02:38:20;;;;;;;;;1.75;0.00;;;;;4.85;68.00;98534.06;4903170;29;46169;-96
2021/11/27 02:40:45;;;;;;;;;0.00;0.00;;;;;4.87;68.20;98550.63;4917668;28;45459;-96
2021/11/27 02:43:11;;;;;;;;;0.50;0.50;;;;;4.80;68.62;98534.78;4920797;28;45446;-96
2021/11/27 02:45:37;;;;;;;;;1.50;0.00;;;;;4.78;68.63;98538.19;4921994;28;47088;-96
2021/11/27 02:48:03;;;;;;;;;2.00;1.00;;;;;4.79;68.63;98539.97;4906691;28;45411;-96
2021/11/27 02:50:34;;;;;;;;;2.00;1.00;;;;;4.68;68.48;98522.28;4906140;28;45250;-96
2021/11/27 02:53:00;;;;;;;;;0.00;0.00;;;;;4.65;68.05;98522.19;4911091;28;47290;-96
2021/11/27 02:55:25;;;;;;;;;0.00;0.00;;;;;4.67;68.74;98530.91;4926925;28;47258;-95
2021/11/27 02:57:51;;;;;;;;;2.00;0.67;;;;;4.56;68.53;98512.34;4958931;28;45957;-96
2021/11/27 03:00:20;;;;;;;;;1.67;0.00;;;;;4.51;68.85;98508.72;4927115;28;45334;-96
2021/11/27 03:02:47;;;;;;;;;0.50;0.50;;;;;4.65;69.04;98519.59;4941525;28;44848;-96
2021/11/27 03:05:13;;;;;;;;;0.00;0.00;;;;;4.50;68.46;98499.16;4933200;28;47571;-96
2021/11/27 03:07:39;;;;;;;;;0.00;0.00;;;;;4.60;68.72;98521.16;4925774;28;44860;-96
2021/11/27 03:10:07;;;;;;;;;0.00;0.00;;;;;4.46;68.76;98499.88;4932237;28;44987;-96
2021/11/27 03:12:33;;;;;;;;;0.00;0.00;;;;;4.42;68.51;98498.91;4946093;28;44888;-96
2021/11/27 03:14:59;;;;;;;;;1.33;1.00;;;;;4.41;68.79;98510.13;4942936;28;47145;-96
2021/11/27 03:17:25;;;;;;;;;1.00;1.00;;;;;4.45;68.80;98521.50;4923337;28;45084;-96
2021/11/27 03:19:50;;;;;;;;;2.33;2.00;;;;;4.38;68.53;98503.97;4934135;28;44792;-96
2021/11/27 03:22:19;;;;;;;;;1.00;0.00;;;;;4.34;68.09;98497.75;4937374;28;44892;-96
2021/11/27 03:24:45;;;;;;;;;1.00;1.00;;;;;4.40;68.73;98507.47;4920949;28;47515;-96
2021/11/27 03:27:11;;;;;;;;;0.00;0.00;;;;;4.32;68.71;98492.53;4922231;28;45427;-96
2021/11/27 03:29:37;;;;;;;;;1.00;0.00;;;;;4.39;68.34;98508.31;4909403;28;45470;-96
2021/11/27 03:32:05;;;;;;;;;1.00;1.00;;;;;4.19;68.72;98479.94;4925399;28;45186;-96
2021/11/27 03:34:31;;;;;;;;;0.00;0.00;;;;;4.35;69.10;98491.75;4933537;28;47875;-96
2021/11/27 03:36:56;;;;;;;;;0.00;0.00;;;;;4.29;68.68;98483.72;4904836;28;45652;-96
2021/11/27 03:39:23;;;;;;;;;0.00;0.00;;;;;4.23;68.37;98472.31;4924086;28;45434;-96
2021/11/27 03:41:48;;;;;;;;;0.33;0.00;;;;;4.27;68.84;98477.63;4932048;28;45578;-96
2021/11/27 03:44:14;;;;;;;;;0.00;0.00;;;;;4.14;68.84;98446.03;4906482;28;47620;-96
2021/11/27 03:46:40;;;;;;;;;3.33;0.33;;;;;4.22;68.81;98467.97;4924077;28;45342;-96
2021/11/27 03:49:06;;;;;;;;;0.25;0.25;;;;;4.23;68.37;98469.72;4920757;28;45435;-96
2021/11/27 03:51:31;;;;;;;;;1.00;0.00;;;;;4.12;68.83;98453.75;4921813;28;45423;-96
2021/11/27 03:53:57;;;;;;;;;1.00;1.00;;;;;4.15;68.65;98452.97;4902888;28;47329;-96
2021/11/27 03:56:26;;;;;;;;;3.00;0.00;;;;;4.17;68.35;98461.72;4894590;29;45688;-96
2021/11/27 03:58:53;;;;;;;;;0.00;0.00;;;;;4.11;67.88;98452.00;4913390;28;45478;-96
2021/11/27 04:01:20;;;;;;;;;2.00;0.00;;;;;4.09;68.84;98447.59;4915892;28;45699;-96
2021/11/27 04:03:48;;;;;;;;;0.00;0.00;;;;;4.05;68.74;98438.81;4899653;29;47512;-95
2021/11/27 04:06:15;;;;;;;;;0.00;0.00;;;;;4.04;68.70;98426.66;4919459;28;45237;-96
2021/11/27 04:08:40;;;;;;;;;1.00;1.00;;;;;4.04;68.43;98416.28;4919298;28;45425;-96
2021/11/27 04:11:06;;;;;;;;;0.00;0.00;;;;;4.12;68.95;98424.34;4902762;28;45440;-96
2021/11/27 04:13:32;;;;;;;;;0.00;0.00;;;;;4.09;68.76;98413.84;4903459;28;47127;-96
2021/11/27 04:15:58;;;;;;;;;0.00;0.00;;;;;4.02;68.68;98404.97;4919433;28;45509;-96
2021/11/27 04:18:23;;;;;;;;;0.00;0.00;;;;;4.17;68.51;98425.38;4920190;28;45394;-96
2021/11/27 04:20:49;;;;;;;;;1.00;1.00;;;;;4.18;68.62;98426.22;4904283;28;45445;-96
2021/11/27 04:23:15;;;;;;;;;0.00;0.00;;;;;4.13;68.62;98418.28;4902106;28;51085;-96
2021/11/27 04:25:41;;;;;;;;;0.00;0.00;;;;;4.01;68.59;98398.00;4911034;28;45420;-96
2021/11/27 04:28:08;;;;;;;;;1.00;1.00;;;;;4.08;68.64;98401.66;4920615;28;45415;-96
2021/11/27 04:30:33;;;;;;;;;2.00;0.75;;;;;4.10;68.50;98413.88;4904593;28;45318;-96
2021/11/27 04:33:00;;;;;;;;;0.50;0.50;;;;;4.06;67.62;98411.13;4902961;28;47847;-96
2021/11/27 04:35:28;;;;;;;;;2.00;2.00;;;;;4.03;68.10;98401.53;4903724;28;45254;-96
2021/11/27 04:37:54;;;;;;;;;0.00;0.00;;;;;3.95;68.30;98402.97;4905902;28;46756;-96
2021/11/27 04:40:20;;;;;;;;;0.00;0.00;;;;;3.99;68.28;98415.25;4903922;28;45538;-96
2021/11/27 04:42:46;;;;;;;;;2.00;0.25;;;;;4.12;67.96;98426.94;4904047;28;47451;-96
2021/11/27 04:45:12;;;;;;;;;0.00;0.00;;;;;4.00;68.35;98423.06;4922102;28;45347;-96
2021/11/27 04:47:38;;;;;;;;;4.00;0.00;;;;;4.06;67.59;98431.91;4924725;28;44664;-96
2021/11/27 04:50:07;;;;;;;;;1.33;0.00;;;;;4.03;68.52;98419.69;4903525;28;45357;-96
2021/11/27 04:52:32;;;;;;;;;2.00;2.00;;;;;3.94;67.98;98409.91;4918704;28;47153;-96
2021/11/27 04:54:58;;;;;;;;;1.00;1.00;;;;;4.07;67.62;98420.69;4900859;28;46166;-96
2021/11/27 04:57:23;;;;;;;;;0.67;0.67;;;;;4.12;67.68;98435.56;4884924;29;45424;-96
2021/11/27 04:59:49;;;;;;;;;0.00;0.00;;;;;4.04;67.79;98428.38;4908014;28;45324;-96
2021/11/27 05:02:15;;;;;;;;;0.00;0.00;;;;;3.99;68.29;98412.66;4907124;28;47073;-96
2021/11/27 05:04:41;;;;;;;;;0.00;0.00;;;;;4.10;67.86;98434.66;4908385;28;45486;-96
2021/11/27 05:07:07;;;;;;;;;0.00;0.00;;;;;4.07;68.28;98418.09;4902395;28;45394;-96
2021/11/27 05:09:32;;;;;;;;;4.00;1.00;;;;;4.06;67.20;98406.81;4903148;28;45382;-96
2021/11/27 05:11:58;;;;;;;;;0.33;0.33;;;;;4.11;67.98;98417.38;4903156;28;47097;-96
2021/11/27 05:14:23;;;;;;;;;0.00;0.00;;;;;4.05;67.01;98397.25;4905098;28;45323;-96
2021/11/27 05:16:49;;;;;;;;;0.00;0.00;;;;;4.04;67.49;98397.22;4903938;28;45259;-96
2021/11/27 05:19:14;;;;;;;;;0.00;0.00;;;;;4.07;67.90;98387.81;4903995;28;45452;-96
2021/11/27 05:21:40;;;;;;;;;0.67;0.00;;;;;4.23;66.73;98396.09;4905654;28;47041;-95
2021/11/27 05:24:06;;;;;;;;;0.00;0.00;;;;;4.11;68.02;98387.09;4906323;28;45979;-96
2021/11/27 05:26:32;;;;;;;;;0.25;0.25;;;;;4.09;67.15;98368.00;4905032;28;45259;-96
2021/11/27 05:28:58;;;;;;;;;0.00;0.00;;;;;4.16;67.07;98371.66;4917060;28;45313;-96
2021/11/27 05:31:24;;;;;;;;;0.25;0.00;;;;;4.27;68.10;98379.81;4910233;28;47538;-96
2021/11/27 05:36:30;;;;;;;;;2.50;2.00;;;;;4.31;67.49;98376.47;4904024;29;45472;-96
2021/11/27 05:38:56;;;;;;;;;1.00;1.00;;;;;4.20;68.33;98344.94;4902548;29;45511;-96
2021/11/27 05:41:21;;;;;;;;;0.50;0.50;;;;;4.33;66.98;98366.16;4899979;28;46882;-96
2021/11/27 05:43:47;;;;;;;;;0.00;0.00;;;;;4.32;68.03;98360.06;4920756;28;45429;-96
2021/11/27 05:46:13;;;;;;;;;1.50;0.00;;;;;4.40;67.00;98362.91;4946750;28;44839;-96
2021/11/27 05:48:38;;;;;;;;;1.00;0.00;;;;;4.34;66.61;98353.19;4949173;28;45282;-96
2021/11/27 05:51:04;;;;;;;;;2.25;1.00;;;;;4.25;66.92;98342.53;4935142;28;47185;-96
2021/11/27 05:53:30;;;;;;;;;0.50;0.00;;;;;4.42;66.81;98363.81;4939910;28;45489;-96
2021/11/27 05:55:55;;;;;;;;;0.00;0.00;;;;;4.50;67.06;98381.38;4924315;28;45269;-96
2021/11/27 05:58:22;;;;;;;;;3.00;1.00;;;;;4.39;66.21;98360.22;4919311;28;45426;-96
2021/11/27 06:00:48;;;;;;;;;0.25;0.25;;;;;4.43;66.60;98368.16;4904735;29;47177;-96
2021/11/27 06:03:14;;;;;;;;;1.50;1.50;;;;;4.48;66.94;98370.94;4911297;28;45579;-96
2021/11/27 06:05:39;;;;;;;;;2.75;1.75;;;;;4.58;67.83;98377.31;4905822;28;45540;-96
2021/11/27 06:08:05;;;;;;;;;1.50;0.00;;;;;4.48;66.94;98344.97;4903968;29;45492;-96
2021/11/27 06:10:31;;;;;;;;;0.00;0.00;;;;;4.45;66.88;98332.75;4909378;28;48335;-96
2021/11/27 06:12:57;;;;;;;;;3.00;0.25;;;;;4.58;66.64;98354.81;4923866;28;45644;-96
2021/11/27 06:15:23;;;;;;;;;2.00;0.50;;;;;4.55;66.51;98362.50;4909350;28;45445;-96
2021/11/27 06:17:48;;;;;;;;;1.00;1.00;;;;;4.66;65.59;98375.81;4921865;28;45461;-96
2021/11/27 06:20:14;;;;;;;;;1.00;1.00;;;;;4.60;66.21;98359.16;4921772;28;50706;-96
2021/11/27 06:22:40;;;;;;;;;0.50;0.50;;;;;4.54;66.96;98341.66;4908254;28;45376;-96
2021/11/27 06:25:06;;;;;;;;;3.00;1.00;;;;;4.71;66.75;98372.47;4917783;28;45423;-96
2021/11/27 06:27:32;;;;;;;;;1.00;0.33;;;;;4.61;66.29;98347.94;4941690;28;45384;-96
2021/11/27 06:29:57;;;;;;;;;1.00;1.00;;;;;4.58;66.78;98348.72;4918992;28;47610;-96
2021/11/27 06:32:23;;;;;;;;;0.67;0.67;;;;;4.57;67.75;98352.13;4926332;28;45670;-96
2021/11/27 06:34:53;;;;;;;;;0.00;0.00;;;;;4.63;67.26;98362.72;4945633;28;45249;-96
2021/11/27 06:37:22;;;;;;;;;0.75;0.75;;;;;4.43;68.04;98339.59;4911748;28;44755;-96
2021/11/27 06:39:49;;;;;;;;;0.33;0.33;;;;;4.51;68.49;98350.22;4938949;28;47289;-96
2021/11/27 06:42:15;;;;;;;;;3.00;1.33;;;;;4.43;69.07;98351.72;4908523;28;45670;-96
2021/11/27 06:44:46;;;;;;;;;1.50;1.00;;;;;4.25;69.71;98334.72;4928290;28;45403;-96
2021/11/27 06:47:17;;;;;;;;;0.00;0.00;;;;;4.32;70.20;98351.38;4926972;28;44764;-96
2021/11/27 06:49:43;;;;;;;;;0.00;0.00;;;;;4.23;70.58;98355.44;4926253;28;47254;-96
2021/11/27 06:52:09;;;;;;;;;0.67;0.00;;;;;4.09;71.15;98330.75;4923040;28;45626;-96
2021/11/27 06:54:35;;;;;;;;;2.67;1.00;;;;;4.09;71.21;98333.34;4913957;28;45339;-95
2021/11/27 06:57:00;;;;;;;;;0.67;0.00;;;;;4.00;71.13;98331.31;4914725;28;45444;-95
2021/11/27 06:59:26;;;;;;;;;1.00;1.00;;;;;3.98;71.60;98327.78;4914076;28;47155;-96
2021/11/27 07:01:52;;;;;;;;;1.00;1.00;;;;;3.93;71.70;98325.06;4908645;28;45436;-96
2021/11/27 07:04:18;;;;;;;;;0.00;0.00;;;;;4.02;72.08;98337.47;4925545;28;45299;-95
2021/11/27 07:06:44;;;;;;;;;0.00;0.00;;;;;3.99;71.91;98335.66;4922663;28;45312;-96
2021/11/27 07:09:09;;;;;;;;;1.33;1.00;;;;;4.07;71.91;98340.22;4924629;28;47135;-96
2021/11/27 07:11:35;;;;;;;;;2.00;1.00;;;;;4.05;71.69;98347.94;4909989;28;45393;-96
2021/11/27 07:14:01;;;;;;;;;1.00;1.00;;;;;4.02;71.69;98348.72;4903447;29;45753;-96
2021/11/27 07:16:26;;;;;;;;;0.00;0.00;;;;;4.08;71.41;98363.63;4905591;28;45309;-96
2021/11/27 07:18:52;;;;;;;;;1.25;1.25;;;;;3.88;71.97;98324.03;4905966;28;47189;-95
2021/11/27 07:21:17;;;;;;;;;1.00;0.00;;;;;3.95;71.65;98327.69;4938880;28;45978;-95
2021/11/27 07:23:43;;;;;;;;;1.67;0.67;;;;;3.86;71.45;98326.56;4904345;28;45515;-96
2021/11/27 07:26:08;;;;;;;;;0.00;0.00;;;;;3.89;71.99;98339.63;4908080;28;45572;-84
2021/11/27 07:28:33;;;;;;;;;0.50;0.50;;;;;4.07;72.60;98351.44;4913731;28;46229;-84
2021/11/27 07:30:58;;;;;;;;;0.00;0.00;;;;;4.12;72.14;98355.09;4916200;28;45688;-84
2021/11/27 07:33:25;;;;;;;;;0.75;0.75;;;;;4.10;72.17;98355.88;4918099;28;45472;-84
2021/11/27 07:35:51;;;;;;;;;1.00;1.00;;;;;4.10;72.20;98359.34;4907088;28;45451;-85
2021/11/27 07:38:16;;;;;;;;;0.00;0.00;;;;;4.10;72.11;98354.16;4916548;28;45747;-84
2021/11/27 07:40:42;;;;;;;;;1.75;1.00;;;;;4.15;72.42;98362.09;4899054;28;45538;-84
2021/11/27 07:43:07;;;;;;;;;0.00;0.00;;;;;4.13;72.30;98362.06;4913640;28;45790;-83
2021/11/27 07:45:34;;;;;;;;;1.67;0.67;;;;;4.13;71.86;98369.84;4921646;28;45496;-83
2021/11/27 07:48:00;;;;;;;;;0.00;0.00;;;;;4.17;71.92;98381.22;4915739;28;45463;-84
2021/11/27 07:50:25;;;;;;;;;0.00;0.00;;;;;4.18;72.21;98371.69;4916642;28;45418;-83
2021/11/27 07:52:51;;;;;;;;;0.00;0.00;;;;;4.19;71.74;98374.38;4917501;28;45295;-82
2021/11/27 07:55:16;;;;;;;;;1.00;1.00;;;;;4.20;72.47;98385.63;4880889;28;45656;-82
2021/11/27 07:57:42;;;;;;;;;1.00;0.75;;;;;4.20;72.04;98375.25;4917737;28;45531;-82
2021/11/27 08:00:08;;;;;;;;;0.00;0.00;;;;;4.23;71.71;98373.63;4915156;28;45349;-82
2021/11/27 08:02:34;;;;;;;;;1.00;1.00;;;;;4.28;71.44;98363.38;4920061;28;45420;-82
2021/11/27 08:04:59;;;;;;;;;1.00;0.00;;;;;4.29;72.03;98375.53;4916548;28;45396;-84
2021/11/27 08:07:24;;;;;;;;;1.00;1.00;;;;;4.29;71.61;98372.06;4898000;28;48273;-84
2021/11/27 08:09:49;;;;;;;;;0.00;0.00;;;;;4.31;72.05;98371.28;4926295;28;45333;-82
2021/11/27 08:12:15;;;;;;;;;0.00;0.00;;;;;4.30;71.83;98366.94;4927892;28;45509;-83
2021/11/27 08:14:41;;;;;;;;;0.75;0.75;;;;;4.39;72.40;98381.03;4928429;28;45370;-83
2021/11/27 08:17:07;;;;;;;;;1.25;1.25;;;;;4.39;71.51;98384.50;4932787;28;46440;-83
2021/11/27 08:19:32;;;;;;;;;1.00;0.75;;;;;4.38;71.62;98384.47;4927414;28;45428;-84
2021/11/27 08:21:58;;;;;;;;;0.00;0.00;;;;;4.39;71.30;98379.31;4917399;28;45378;-83
2021/11/27 08:24:25;;;;;;;;;1.00;0.00;;;;;4.38;71.52;98372.34;4927481;28;45398;-83
2021/11/27 08:26:50;;;;;;;;;2.00;0.00;;;;;4.38;71.49;98369.75;4921082;28;45903;-83
2021/11/27 08:29:17;;;;;;;;;1.00;1.00;;;;;4.44;71.50;98369.06;4899399;28;45468;-83
2021/11/27 08:31:43;;;;;;;;;1.00;1.00;;;;;4.44;71.48;98372.53;4916044;28;45482;-83
2021/11/27 08:34:08;;;;;;;;;1.33;1.00;;;;;4.44;71.60;98375.16;4924572;28;45436;-83
2021/11/27 08:36:33;;;;;;;;;1.00;1.00;;;;;4.44;71.54;98375.16;4926216;28;46270;-83
2021/11/27 08:38:59;;;;;;;;;0.00;0.00;;;;;4.40;70.95;98368.09;4923871;28;45582;-84
2021/11/27 08:41:24;;;;;;;;;1.00;1.00;;;;;4.44;71.79;98385.53;4923028;28;45738;-82
2021/11/27 08:43:49;;;;;;;;;1.75;0.75;;;;;4.47;71.32;98379.56;4921922;28;45385;-83
2021/11/27 08:46:15;;;;;;;;;0.75;0.75;;;;;4.44;71.21;98385.53;4923529;28;46851;-83
2021/11/27 08:48:40;;;;;;;;;0.50;0.00;;;;;4.40;70.90;98381.09;4909378;28;46238;-82
2021/11/27 08:51:11;;;;;;;;;1.00;1.00;;;;;4.38;70.35;98382.72;4917270;28;45515;-83
2021/11/27 08:53:38;;;;;;;;;2.00;1.00;;;;;4.39;70.95;98386.22;4919417;28;45495;-83
2021/11/27 08:56:08;;;;;;;;;0.00;0.00;;;;;4.36;71.40;98394.78;4917597;28;46348;-83
2021/11/27 08:58:35;;;;;;;;;0.00;0.00;;;;;4.32;71.47;98386.03;4916458;28;45523;-83
2021/11/27 09:01:01;;;;;;;;;0.00;0.00;;;;;4.34;71.31;98388.66;4920778;28;45381;-82
2021/11/27 09:03:26;;;;;;;;;0.00;0.00;;;;;4.40;71.65;98395.78;4926725;28;45393;-82
2021/11/27 09:05:52;;;;;;;;;1.00;0.00;;;;;4.40;71.43;98398.38;4919835;28;45812;-82
2021/11/27 09:08:17;;;;;;;;;0.00;0.00;;;;;4.43;71.62;98385.50;4919911;28;45583;-83
2021/11/27 09:10:44;;;;;;;;;0.00;0.00;;;;;4.49;72.06;98389.97;4918241;28;45668;-83
2021/11/27 09:13:10;;;;;;;;;0.00;0.00;;;;;4.47;70.63;98385.63;4919462;28;45463;-83
2021/11/27 09:15:35;;;;;;;;;0.00;0.00;;;;;4.55;71.55;98401.47;4934581;28;46352;-83
2021/11/27 09:18:02;;;;;;;;;0.67;0.67;;;;;4.60;71.95;98412.00;4920729;28;45466;-82
2021/11/27 09:20:32;;;;;;;;;0.00;0.00;;;;;4.65;71.94;98410.44;4920553;28;45524;-84
2021/11/27 09:22:58;;;;;;;;;0.00;0.00;;;;;4.75;71.57;98422.00;4905288;28;45596;-83
2021/11/27 09:25:25;;;;;;;;;1.00;0.67;;;;;4.80;71.67;98422.13;4905654;28;46135;-82
2021/11/27 09:27:51;;;;;;;;;0.00;0.00;;;;;4.84;71.15;98418.81;4923489;28;45518;-83
2021/11/27 09:30:16;;;;;;;;;0.67;0.00;;;;;4.92;71.19;98426.84;4920874;28;45397;-83
2021/11/27 09:32:42;;;;;;;;;1.67;0.00;;;;;4.98;70.67;98427.03;4927306;28;45372;-85
2021/11/27 09:35:08;;;;;;;;;0.00;0.00;;;;;4.99;70.65;98422.72;4923024;28;45978;-86
2021/11/27 09:37:33;;;;;;;;;0.33;0.33;;;;;4.99;70.19;98421.00;4908827;28;45270;-86
2021/11/27 09:39:59;;;;;;;;;0.33;0.33;;;;;5.06;71.13;98435.06;4928547;28;45381;-86
2021/11/27 09:42:26;;;;;;;;;0.00;0.00;;;;;5.03;70.94;98430.63;4923534;28;45559;-85
2021/11/27 09:44:54;;;;;;;;;1.00;1.00;;;;;5.16;70.49;98433.59;4926225;28;47635;-84
2021/11/27 09:47:20;;;;;;;;;0.00;0.00;;;;;5.34;70.77;98438.47;4927913;28;46408;-87
2021/11/27 09:49:48;;;;;;;;;0.00;0.00;;;;;5.56;70.83;98441.69;4929139;28;45468;-85
2021/11/27 09:52:13;;;;;;;;;2.00;0.00;;;;;5.77;70.34;98437.91;4928090;28;45653;-85
2021/11/27 09:54:40;;;;;;;;;0.00;0.00;;;;;5.92;69.72;98432.25;4931709;28;45459;-86
2021/11/27 09:57:12;;;;;;;;;0.00;0.00;;;;;6.11;69.44;98447.50;4927093;28;45154;-86
2021/11/27 09:59:41;;;;;;;;;1.33;0.00;;;;;6.13;69.01;98433.66;4935239;28;45242;-85
2021/11/27 10:02:10;;;;;;;;;1.67;0.00;;;;;6.17;68.42;98452.88;4915315;28;45649;-85
2021/11/27 10:04:39;;;;;;;;;0.67;0.67;;;;;6.22;69.05;98453.00;4921026;28;45512;-86
2021/11/27 10:07:05;;;;;;;;;1.33;0.00;;;;;6.30;68.32;98448.88;4911997;28;45404;-86
2021/11/27 10:09:31;;;;;;;;;1.00;1.00;;;;;6.38;69.18;98459.47;4931700;28;45629;-86
2021/11/27 10:11:56;;;;;;;;;0.00;0.00;;;;;6.36;68.03;98454.25;4934727;28;45500;-86
2021/11/27 10:14:22;;;;;;;;;2.00;0.00;;;;;6.36;67.11;98445.53;4926207;28;45566;-86
2021/11/27 10:16:57;;;;;;;;;1.00;1.00;;;;;6.36;67.82;98456.84;4911157;28;45281;-86
2021/11/27 10:19:24;;;;;;;;;3.00;0.00;;;;;6.44;67.64;98454.41;4905648;28;45506;-86
2021/11/27 10:21:55;;;;;;;;;1.00;1.00;;;;;6.43;67.21;98452.66;4910721;28;45542;-86
2021/11/27 10:24:24;;;;;;;;;1.33;1.33;;;;;6.42;67.31;98453.50;4928977;28;46369;-87
2021/11/27 10:26:52;;;;;;;;;0.00;0.00;;;;;6.48;66.78;98463.19;4923936;28;45522;-86
2021/11/27 10:29:20;;;;;;;;;1.00;1.00;;;;;6.57;67.54;98465.16;4909964;28;45464;-85
2021/11/27 10:31:50;;;;;;;;;1.00;1.00;;;;;6.62;66.19;98466.16;4908070;28;45566;-85
2021/11/27 10:34:22;;;;;;;;;1.67;1.67;;;;;6.70;67.26;98466.34;4922513;28;46586;-85
2021/11/27 10:36:49;;;;;;;;;1.33;1.33;;;;;6.73;66.65;98465.50;4932743;28;45417;-85
2021/11/27 10:39:15;;;;;;;;;1.33;1.00;;;;;6.75;67.09;98463.84;4922488;28;45347;-86
2021/11/27 10:41:57;;;;;;;;;4.33;4.33;;;;;6.75;66.80;98467.31;4910742;28;45559;-85
2021/11/27 10:44:37;;;;;;;;;1.00;1.00;;;;;6.77;67.86;98465.66;4917545;28;47251;-86
2021/11/27 10:47:17;;;;;;;;;4.33;1.67;;;;;6.77;67.85;98457.81;4911341;28;45661;-86
2021/11/27 10:49:45;;;;;;;;;2.33;1.33;;;;;6.82;67.40;98455.31;4900013;28;46071;-86
2021/11/27 10:52:21;;;;;;;;;2.67;1.67;;;;;6.93;67.85;98452.97;4925491;28;45358;-85
2021/11/27 10:54:49;;;;;;;;;1.00;1.00;;;;;7.00;67.36;98459.19;4928740;28;45437;-85
2021/11/27 10:57:38;;;;;;;;;1.00;1.00;;;;;7.07;66.69;98457.59;4929080;28;45439;-86
2021/11/27 11:00:24;;;;;;;;;1.00;1.00;;;;;7.13;67.13;98449.91;4921509;28;45528;-86
2021/11/27 11:02:50;;;;;;;;;2.33;2.00;;;;;7.14;67.38;98447.31;4906617;28;45624;-85
2021/11/27 11:05:15;;;;;;;;;3.00;2.00;;;;;7.27;66.95;98444.97;4902219;28;46145;-86
2021/11/27 11:07:42;;;;;;;;;1.33;0.67;;;;;7.41;65.89;98447.00;4909633;28;45543;-86
2021/11/27 11:10:12;;;;;;;;;1.00;1.00;;;;;7.47;65.74;98462.81;4907007;28;45379;-85
2021/11/27 11:12:42;;;;;;;;;2.00;1.00;;;;;7.53;65.03;98460.31;4902183;28;45358;-86
2021/11/27 11:15:13;;;;;;;;;0.33;0.00;;;;;7.62;65.08;98463.97;4901158;28;45767;-86
2021/11/27 11:17:39;;;;;;;;;2.00;1.00;;;;;7.62;66.47;98459.63;4912052;28;45628;-85
2021/11/27 11:20:21;;;;;;;;;2.00;2.00;;;;;7.71;65.74;98458.94;4905802;28;45917;-86
2021/11/27 11:23:16;;;;;;;;;1.00;1.00;;;;;7.85;65.14;98464.44;4904258;28;45413;-86
2021/11/27 11:26:02;;;;;;;;;1.00;1.00;;;;;8.03;65.99;98466.53;4904152;28;47386;-88
2021/11/27 11:28:39;;;;;;;;;0.00;0.00;;;;;8.08;63.90;98460.50;4899217;28;46244;-85
2021/11/27 11:31:12;;;;;;;;;1.67;1.67;;;;;8.08;63.82;98468.34;4890188;28;45382;-83
2021/11/27 11:33:43;;;;;;;;;1.00;0.00;;;;;8.06;64.24;98476.16;4914748;28;45430;-85
2021/11/27 11:36:11;;;;;;;;;1.00;1.00;;;;;7.90;65.02;98475.84;4913108;28;46266;-87
2021/11/27 11:38:40;;;;;;;;;1.00;1.00;;;;;7.81;63.73;98476.53;4914751;28;45612;-85
2021/11/27 11:41:05;;;;;;;;;0.00;0.00;;;;;7.65;64.89;98477.09;4899360;28;45538;-90
2021/11/27 11:43:31;;;;;;;;;2.00;1.00;;;;;7.52;65.04;98484.69;4904687;28;45723;-85